KPOY

Powell Municipal Airport

Powell, Wyoming, USA
METAR KPOY 181335Z AUTO 29014KT BKN001 M09/M11 A2984 RMK AO2 PWINO
Observed Flight Rules
Jan-18 @ 13:35 UTC (15 minutes ago)
Wind Clouds
290° at 14 knots
  • Broken at 100' AGL
Temperatures Readings
Current -9°C / 16°F
Dewpoint -11°C / 12°F
Humidity 86%
Altimeter 29.84" Hg
Pressure 1010.52 hPa
Elevation 1552
METAR KPOY 181335Z AUTO 29014KT BKN001 M09/M11 A2984 RMK AO2 PWINO
Observed Flight Rules
Jan-18 @ 13:35 UTC
(15 minutes ago)
Wind
290° at 14 knots
Clouds
  • Broken at 100' AGL
Temperature Dewpoint
-9°C / 16°F -11°C / 12°F
Humidity Altimeter Pressure
86% 29.84" Hg 1010.52 hPa